Airport Name : Bradford Rgnl

Other Name : Bradford Rgnl

ICAO : KBFD

IATA : BFD

FAA : BFD

Latitude : 41.803067

Longitude : -78.640122

Country : United States

Local Date and Time : 10/23/2018 3:39:00 AM

 

TAF (Terminal Aerodrome Forecast)

KBFD 230556Z 2306/2406 21002KT P6SM BKN060 FM231400 26010G17KT P6SM SCT025 BKN060 FM231700 30013G21KT 6SM -SHRA BR BKN025 OVC050 FM232300 30010G17KT P6SM -SHSN OVC018

 

METAR (METeorological Aerodrome Report)

KBFD 230653Z AUTO 24004KT 10SM CLR 05/00 A2999 RMK AO2 SLP161 T00500000

KBFD 230553Z AUTO 00000KT 10SM SCT060 04/00 A3000 RMK AO2 SLP166 T00390000 10044 20017 56010

KBFD 230453Z AUTO 00000KT 10SM BKN060 03/01 A3000 RMK AO2 SLP169 T00280006 401000006

KBFD 230353Z AUTO 00000KT 10SM BKN060 04/01 A3002 RMK AO2 SLP176 T00390006